Time;durP1;ratioP1;P1;durP2;ratioP2;P2;SDS_P1;SDS_P2;PMS_P1;PMS_P2;Temp;Humidity;BMP_temperature;BMP_pressure;BME280_temperature;BME280_humidity;BME280_pressure;Samples;Min_cycle;Max_cycle;Signal;HPM_P1;HPM_P2
2023/07/30 00:02:26;;;;;;;5.97;1.77;;;;;;;;;;5070843;28;20052;-66
2023/07/30 00:04:54;;;;;;;6.85;1.73;;;;;;;;;;5071174;28;20048;-65
2023/07/30 00:07:21;;;;;;;4.22;1.50;;;;;;;;;;5071111;28;20056;-66
2023/07/30 00:09:48;;;;;;;5.55;1.88;;;;;;;;;;5076017;28;20040;-65
2023/07/30 00:12:16;;;;;;;7.97;1.42;;;;;;;;;;5072621;28;20040;-65
2023/07/30 00:14:45;;;;;;;7.55;1.88;;;;;;;;;;5051024;28;20045;-65
2023/07/30 00:17:12;;;;;;;4.22;1.48;;;;;;;;;;5058377;28;20075;-65
2023/07/30 00:19:39;;;;;;;7.25;1.58;;;;;;;;;;5060081;28;20056;-65
2023/07/30 00:22:07;;;;;;;7.72;1.80;;;;;;;;;;5060150;28;20052;-66
2023/07/30 00:24:34;;;;;;;6.80;1.65;;;;;;;;;;5060041;28;20053;-65
2023/07/30 00:27:01;;;;;;;9.05;1.58;;;;;;;;;;5055277;28;20064;-67
2023/07/30 00:29:29;;;;;;;3.63;1.25;;;;;;;;;;5058282;28;20068;-65
2023/07/30 00:31:56;;;;;;;7.60;1.95;;;;;;;;;;5061950;28;20094;-66
2023/07/30 00:34:23;;;;;;;7.82;1.45;;;;;;;;;;5063148;28;20167;-66
2023/07/30 00:36:50;;;;;;;4.03;1.50;;;;;;;;;;5054787;28;20064;-66
2023/07/30 00:39:17;;;;;;;8.07;1.80;;;;;;;;;;5057232;28;20052;-66
2023/07/30 00:41:45;;;;;;;6.15;1.60;;;;;;;;;;5059845;28;20155;-66
2023/07/30 00:44:12;;;;;;;;;;;;;;;;;;5060115;28;20044;-66
2023/07/30 00:46:40;;;;;;;4.70;1.33;;;;;;;;;;5051309;28;19930;-66
2023/07/30 00:49:07;;;;;;;;;;;;;;;;;;5059255;28;20083;-66
2023/07/30 00:51:35;;;;;;;3.45;1.23;;;;;;;;;;5061221;28;19954;-66
2023/07/30 00:54:02;;;;;;;7.05;1.42;;;;;;;;;;5061124;28;20102;-65
2023/07/30 00:56:29;;;;;;;5.60;1.40;;;;;;;;;;5052811;28;20048;-67
2023/07/30 00:58:56;;;;;;;8.25;1.70;;;;;;;;;;5057715;28;20056;-65
2023/07/30 01:01:23;;;;;;;4.32;1.30;;;;;;;;;;5059866;28;20196;-65
2023/07/30 01:03:51;;;;;;;6.35;1.25;;;;;;;;;;5093975;28;20066;-65
2023/07/30 01:06:19;;;;;;;5.53;1.25;;;;;;;;;;5060741;28;20079;-66
2023/07/30 01:08:46;;;;;;;4.23;1.40;;;;;;;;;;5049663;28;20056;-66
2023/07/30 01:11:15;;;;;;;5.53;1.55;;;;;;;;;;5062157;28;20331;-66
2023/07/30 01:13:43;;;;;;;5.78;1.40;;;;;;;;;;5060659;28;20040;-66
2023/07/30 01:16:11;;;;;;;3.15;1.40;;;;;;;;;;5065044;28;20049;-65
2023/07/30 01:18:38;;;;;;;10.95;1.42;;;;;;;;;;5037261;28;20052;-66
2023/07/30 01:21:06;;;;;;;6.38;1.52;;;;;;;;;;5059511;28;20052;-65
2023/07/30 01:23:33;;;;;;;5.18;1.40;;;;;;;;;;5057809;28;20048;-65
2023/07/30 01:26:04;;;;;;;6.97;1.50;;;;;;;;;;5058596;28;20048;-65
2023/07/30 01:28:37;;;;;;;7.03;1.77;;;;;;;;;;5049434;28;20075;-66
2023/07/30 01:31:05;;;;;;;7.53;1.58;;;;;;;;;;5059594;28;20137;-65
2023/07/30 01:33:35;;;;;;;4.40;1.35;;;;;;;;;;5059029;28;20056;-66
2023/07/30 01:36:03;;;;;;;3.85;1.13;;;;;;;;;;5061327;28;20067;-66
2023/07/30 01:38:35;;;;;;;9.18;2.33;;;;;;;;;;5056204;28;20117;-65
2023/07/30 01:41:02;;;;;;;10.68;3.95;;;;;;;;;;5069357;28;20060;-65
2023/07/30 01:43:30;;;;;;;7.20;2.83;;;;;;;;;;5060232;28;20044;-66
2023/07/30 01:45:58;;;;;;;13.40;2.17;;;;;;;;;;5059718;28;20060;-66
2023/07/30 01:48:25;;;;;;;8.68;1.45;;;;;;;;;;5047330;28;20060;-67
2023/07/30 01:50:52;;;;;;;7.80;1.50;;;;;;;;;;5052746;28;20059;-66
2023/07/30 01:53:19;;;;;;;5.18;1.40;;;;;;;;;;5062915;28;20128;-67
2023/07/30 01:55:47;;;;;;;5.32;1.33;;;;;;;;;;5058565;28;20052;-66
2023/07/30 01:58:14;;;;;;;4.07;1.25;;;;;;;;;;5045164;28;20048;-67
2023/07/30 02:00:41;;;;;;;7.18;1.67;;;;;;;;;;5052477;28;20056;-66
2023/07/30 02:03:08;;;;;;;7.40;1.60;;;;;;;;;;5058049;28;20155;-66
2023/07/30 02:05:35;;;;;;;5.53;1.50;;;;;;;;;;5016644;28;20089;-66
2023/07/30 02:08:02;;;;;;;6.60;1.73;;;;;;;;;;5059407;28;20084;-66
2023/07/30 02:10:29;;;;;;;7.88;1.67;;;;;;;;;;5051806;28;20110;-66
2023/07/30 02:12:57;;;;;;;9.32;1.60;;;;;;;;;;5081882;28;20064;-65
2023/07/30 02:15:24;;;;;;;7.95;1.50;;;;;;;;;;5033852;28;20052;-64
2023/07/30 02:17:51;;;;;;;6.30;1.45;;;;;;;;;;5038256;28;20081;-65
2023/07/30 02:20:20;;;;;;;8.75;1.52;;;;;;;;;;5034390;28;20134;-68
2023/07/30 02:22:47;;;;;;;4.80;1.40;;;;;;;;;;5038871;28;20053;-66
2023/07/30 02:25:14;;;;;;;6.72;1.67;;;;;;;;;;5034448;28;20053;-66
2023/07/30 02:27:41;;;;;;;7.97;1.65;;;;;;;;;;5039296;28;20053;-66
2023/07/30 02:32:42;;;;;;;8.23;1.73;;;;;;;;;;3294611;22;20191;-66
2023/07/30 02:35:09;;;;;;;7.57;1.60;;;;;;;;;;4968697;28;20065;-66
2023/07/30 02:37:37;;;;;;;13.52;1.65;;;;;;;;;;4976738;28;20047;-66
2023/07/30 02:40:05;;;;;;;11.00;1.97;;;;;;;;;;4995061;28;20058;-66
2023/07/30 02:42:32;;;;;;;8.87;1.90;;;;;;;;;;4973352;28;20321;-66
2023/07/30 02:44:59;;;;;;;5.60;1.92;;;;;;;;;;4988440;28;20114;-66
2023/07/30 02:47:26;;;;;;;13.00;2.35;;;;;;;;;;4981286;28;20065;-66
2023/07/30 02:49:54;;;;;;;11.45;1.90;;;;;;;;;;4978129;28;20081;-66
2023/07/30 02:52:21;;;;;;;11.15;1.52;;;;;;;;;;4971552;28;20061;-67
2023/07/30 02:54:47;;;;;;;13.35;1.95;;;;;;;;;;4976058;28;20050;-66
2023/07/30 02:57:14;;;;;;;9.98;2.72;;;;;;;;;;4983060;28;20030;-66
2023/07/30 02:59:41;;;;;;;12.45;2.38;;;;;;;;;;4991354;28;20050;-66
2023/07/30 03:02:08;;;;;;;11.82;2.30;;;;;;;;;;4974828;28;20073;-67
2023/07/30 03:04:36;;;;;;;14.50;2.33;;;;;;;;;;4962026;28;20066;-66
2023/07/30 03:07:05;;;;;;;8.95;1.92;;;;;;;;;;4979312;28;20062;-66
2023/07/30 03:09:35;;;;;;;11.95;3.00;;;;;;;;;;4973088;28;20077;-66
2023/07/30 03:12:02;;;;;;;8.10;2.30;;;;;;;;;;4980167;28;20054;-66
2023/07/30 03:14:28;;;;;;;11.63;2.15;;;;;;;;;;4962619;28;20081;-66
2023/07/30 03:16:55;;;;;;;12.27;2.33;;;;;;;;;;4974693;28;20050;-66
2023/07/30 03:19:22;;;;;;;7.93;2.33;;;;;;;;;;4978233;28;20060;-66
2023/07/30 03:21:49;;;;;;;10.07;2.78;;;;;;;;;;4991556;28;20062;-66
2023/07/30 03:24:17;;;;;;;13.32;2.30;;;;;;;;;;4968688;28;20125;-66
2023/07/30 03:26:44;;;;;;;10.43;2.30;;;;;;;;;;4956135;28;20890;-66
2023/07/30 03:29:11;;;;;;;10.27;2.22;;;;;;;;;;4960453;28;20054;-66
2023/07/30 03:31:38;;;;;;;16.08;3.50;;;;;;;;;;4961078;28;20063;-66
2023/07/30 03:34:05;;;;;;;15.32;3.25;;;;;;;;;;4968472;28;20062;-66
2023/07/30 03:36:32;;;;;;;16.10;2.30;;;;;;;;;;4985974;28;20060;-66
2023/07/30 03:38:59;;;;;;;11.07;2.70;;;;;;;;;;4977624;28;20064;-66
2023/07/30 03:41:27;;;;;;;12.95;2.75;;;;;;;;;;4996353;28;20160;-66
2023/07/30 03:43:54;;;;;;;9.40;2.75;;;;;;;;;;4989178;28;20062;-66
2023/07/30 03:46:21;;;;;;;7.35;2.60;;;;;;;;;;4985717;28;20050;-67
2023/07/30 03:48:47;;;;;;;11.23;2.60;;;;;;;;;;4979613;28;20347;-65
2023/07/30 03:51:15;;;;;;;22.40;3.67;;;;;;;;;;4997170;28;20058;-65
2023/07/30 03:53:42;;;;;;;14.05;2.92;;;;;;;;;;4976378;28;20065;-65
2023/07/30 03:56:09;;;;;;;11.23;2.47;;;;;;;;;;4997307;28;20049;-66
2023/07/30 03:58:38;;;;;;;15.93;3.08;;;;;;;;;;4991547;28;20062;-65
2023/07/30 04:01:05;;;;;;;13.07;3.25;;;;;;;;;;4982933;28;20085;-65
2023/07/30 04:03:32;;;;;;;13.98;2.92;;;;;;;;;;4984186;28;20058;-65
2023/07/30 04:05:59;;;;;;;16.95;2.90;;;;;;;;;;4953822;28;20061;-66
2023/07/30 04:08:26;;;;;;;12.10;3.25;;;;;;;;;;4975810;28;20051;-64
2023/07/30 04:10:53;;;;;;;11.57;2.95;;;;;;;;;;4967684;28;20070;-65
2023/07/30 04:13:20;;;;;;;12.50;3.30;;;;;;;;;;4992180;28;20050;-65
2023/07/30 04:15:50;;;;;;;12.60;3.30;;;;;;;;;;4961522;28;20064;-65
2023/07/30 04:18:17;;;;;;;13.88;3.15;;;;;;;;;;4963709;28;20172;-66
2023/07/30 04:20:44;;;;;;;16.52;2.97;;;;;;;;;;4979427;28;20047;-66
2023/07/30 04:23:11;;;;;;;11.50;3.42;;;;;;;;;;4966665;28;20054;-66
2023/07/30 04:25:38;;;;;;;19.70;3.65;;;;;;;;;;4960904;28;20145;-66
2023/07/30 04:28:05;;;;;;;16.65;3.17;;;;;;;;;;4966366;28;20054;-66
2023/07/30 04:30:33;;;;;;;11.45;3.17;;;;;;;;;;4959058;28;20192;-66
2023/07/30 04:33:02;;;;;;;17.13;3.35;;;;;;;;;;4966335;28;20062;-66
2023/07/30 04:35:29;;;;;;;17.13;3.97;;;;;;;;;;4974262;28;20058;-65
2023/07/30 04:37:56;;;;;;;17.88;3.53;;;;;;;;;;4979828;28;20061;-66
2023/07/30 04:40:23;;;;;;;20.67;3.35;;;;;;;;;;4971302;28;20101;-66
2023/07/30 04:42:50;;;;;;;13.85;3.13;;;;;;;;;;4962778;28;20067;-66
2023/07/30 04:45:17;;;;;;;15.07;3.45;;;;;;;;;;4960617;28;20153;-66
2023/07/30 04:47:44;;;;;;;16.75;3.45;;;;;;;;;;4966725;28;20054;-66
2023/07/30 04:50:13;;;;;;;14.43;3.40;;;;;;;;;;4966210;28;20052;-66
2023/07/30 04:52:42;;;;;;;;;;;;;;;;;;4983356;28;20077;-66
2023/07/30 04:55:12;;;;;;;13.65;3.40;;;;;;;;;;4976048;28;19929;-66
2023/07/30 04:57:38;;;;;;;18.42;3.85;;;;;;;;;;4982394;28;20061;-66
2023/07/30 05:00:09;;;;;;;11.27;3.28;;;;;;;;;;4977123;28;20106;-66
2023/07/30 05:02:36;;;;;;;15.93;4.40;;;;;;;;;;4961863;28;20085;-65
2023/07/30 05:05:04;;;;;;;16.10;4.00;;;;;;;;;;4956894;28;20046;-66
2023/07/30 05:07:34;;;;;;;21.30;3.88;;;;;;;;;;4946664;28;20065;-68
2023/07/30 05:10:01;;;;;;;19.08;3.40;;;;;;;;;;4959275;28;20051;-66
2023/07/30 05:12:28;;;;;;;14.27;3.45;;;;;;;;;;4933011;28;20126;-65
2023/07/30 05:14:56;;;;;;;16.42;3.47;;;;;;;;;;4940049;28;20058;-66
2023/07/30 05:17:22;;;;;;;23.50;3.78;;;;;;;;;;4964650;28;20062;-66
2023/07/30 05:19:49;;;;;;;17.23;3.60;;;;;;;;;;4978220;28;20077;-66
2023/07/30 05:22:16;;;;;;;15.93;4.30;;;;;;;;;;4976862;28;20074;-66
2023/07/30 05:24:46;;;;;;;10.95;3.15;;;;;;;;;;4965120;28;20064;-66
2023/07/30 05:27:14;;;;;;;10.27;2.97;;;;;;;;;;4997969;28;20136;-66
2023/07/30 05:29:41;;;;;;;14.43;3.80;;;;;;;;;;4981897;28;20132;-66
2023/07/30 05:32:10;;;;;;;18.05;3.78;;;;;;;;;;4980481;28;20058;-66
2023/07/30 05:34:37;;;;;;;15.30;3.92;;;;;;;;;;4962892;28;20041;-66
2023/07/30 05:37:03;;;;;;;14.48;3.90;;;;;;;;;;4996949;28;20050;-66
2023/07/30 05:39:30;;;;;;;14.93;3.83;;;;;;;;;;4982894;28;20043;-66
2023/07/30 05:41:58;;;;;;;17.52;4.18;;;;;;;;;;4998651;28;20065;-66
2023/07/30 05:44:25;;;;;;;17.23;4.38;;;;;;;;;;4985154;28;20062;-66
2023/07/30 05:46:52;;;;;;;24.50;5.07;;;;;;;;;;4982893;28;20080;-66
2023/07/30 05:49:20;;;;;;;17.95;4.57;;;;;;;;;;4997913;28;20054;-67
2023/07/30 05:51:47;;;;;;;19.52;4.78;;;;;;;;;;4982864;28;20062;-66
2023/07/30 05:54:16;;;;;;;19.52;5.35;;;;;;;;;;4970850;28;20061;-68
2023/07/30 05:56:43;;;;;;;26.65;5.85;;;;;;;;;;4978825;28;20062;-66
2023/07/30 05:59:12;;;;;;;22.50;5.35;;;;;;;;;;4982442;28;20062;-67
2023/07/30 06:01:39;;;;;;;22.23;4.97;;;;;;;;;;4981974;28;20061;-66
2023/07/30 06:04:06;;;;;;;15.90;5.05;;;;;;;;;;4947045;28;20122;-67
2023/07/30 06:06:33;;;;;;;15.98;5.25;;;;;;;;;;4961135;28;20046;-66
2023/07/30 06:09:00;;;;;;;26.40;5.55;;;;;;;;;;4981713;28;20066;-66
2023/07/30 06:11:27;;;;;;;18.95;4.78;;;;;;;;;;4964056;28;20069;-67
2023/07/30 06:13:54;;;;;;;23.30;5.72;;;;;;;;;;4958194;28;20054;-67
2023/07/30 06:16:22;;;;;;;16.15;4.97;;;;;;;;;;4976509;28;20144;-67
2023/07/30 06:18:49;;;;;;;17.58;4.47;;;;;;;;;;4981330;28;20046;-66
2023/07/30 06:21:15;;;;;;;20.33;5.28;;;;;;;;;;4980331;28;20057;-66
2023/07/30 06:23:42;;;;;;;24.15;5.18;;;;;;;;;;4991533;28;20176;-67
2023/07/30 06:26:09;;;;;;;19.67;5.07;;;;;;;;;;4996087;28;20068;-67
2023/07/30 06:28:36;;;;;;;26.48;5.32;;;;;;;;;;4972758;28;20129;-66
2023/07/30 06:31:03;;;;;;;21.40;5.70;;;;;;;;;;4997435;28;20069;-66
2023/07/30 06:33:32;;;;;;;22.23;5.55;;;;;;;;;;4988475;28;20064;-66
2023/07/30 06:36:01;;;;;;;14.48;4.50;;;;;;;;;;5001916;28;20157;-67
2023/07/30 06:38:28;;;;;;;28.42;5.75;;;;;;;;;;4992007;28;20115;-67
2023/07/30 06:40:57;;;;;;;24.92;5.63;;;;;;;;;;4998358;28;20058;-66
2023/07/30 06:43:24;;;;;;;16.83;4.85;;;;;;;;;;4999367;28;20058;-67
2023/07/30 06:45:51;;;;;;;24.42;5.30;;;;;;;;;;4996484;28;20080;-66
2023/07/30 06:48:18;;;;;;;27.30;5.60;;;;;;;;;;4997769;28;20061;-66
2023/07/30 06:50:46;;;;;;;18.20;5.22;;;;;;;;;;4982357;28;20133;-65
2023/07/30 06:53:13;;;;;;;18.40;5.38;;;;;;;;;;4991340;28;20050;-66
2023/07/30 06:55:40;;;;;;;21.30;4.63;;;;;;;;;;4975223;28;20050;-66
2023/07/30 06:58:07;;;;;;;19.25;5.82;;;;;;;;;;4979872;28;20058;-65
2023/07/30 07:00:34;;;;;;;17.25;5.30;;;;;;;;;;4974312;28;20415;-66
2023/07/30 07:03:01;;;;;;;18.33;4.97;;;;;;;;;;4982087;28;20149;-66
2023/07/30 07:05:28;;;;;;;19.30;5.10;;;;;;;;;;4970312;28;20089;-66
2023/07/30 07:07:56;;;;;;;16.77;5.03;;;;;;;;;;4981939;28;20050;-66
2023/07/30 07:10:23;;;;;;;;;;;;;;;;;;4973390;28;20060;-67
2023/07/30 07:12:50;;;;;;;15.38;5.10;;;;;;;;;;4981050;28;20016;-66
2023/07/30 07:15:17;;;;;;;23.50;5.53;;;;;;;;;;4962420;28;20061;-65
2023/07/30 07:17:45;;;;;;;17.92;5.45;;;;;;;;;;4997411;28;20042;-66
2023/07/30 07:20:14;;;;;;;21.42;9.38;;;;;;;;;;4982600;28;20110;-67
2023/07/30 07:22:41;;;;;;;18.70;6.40;;;;;;;;;;4993594;28;20160;-66
2023/07/30 07:25:10;;;;;;;14.93;5.57;;;;;;;;;;4969736;28;20149;-66
2023/07/30 07:27:37;;;;;;;18.63;5.25;;;;;;;;;;4997285;28;20054;-65
2023/07/30 07:30:04;;;;;;;26.13;5.40;;;;;;;;;;5003300;28;20078;-65
2023/07/30 07:32:37;;;;;;;18.35;4.95;;;;;;;;;;4994908;28;20062;-65
2023/07/30 07:35:05;;;;;;;21.27;5.10;;;;;;;;;;4967826;28;20061;-66
2023/07/30 07:37:33;;;;;;;16.50;4.95;;;;;;;;;;4958857;28;20050;-66
2023/07/30 07:40:00;;;;;;;22.65;4.53;;;;;;;;;;4957861;28;20059;-66
2023/07/30 07:42:31;;;;;;;23.08;5.20;;;;;;;;;;4951520;28;20048;-67
2023/07/30 07:44:58;;;;;;;15.55;3.70;;;;;;;;;;4964783;28;20070;-66
2023/07/30 07:47:25;;;;;;;17.25;3.72;;;;;;;;;;4967108;28;20104;-66
2023/07/30 07:49:54;;;;;;;21.05;4.13;;;;;;;;;;4978672;28;20090;-67
2023/07/30 07:52:20;;;;;;;12.23;3.33;;;;;;;;;;4956086;28;20061;-66
2023/07/30 07:54:47;;;;;;;12.95;3.45;;;;;;;;;;4972348;28;20124;-66
2023/07/30 07:57:14;;;;;;;18.73;4.22;;;;;;;;;;4982537;28;20053;-66
2023/07/30 07:59:44;;;;;;;16.50;5.55;;;;;;;;;;4980287;28;20066;-66
2023/07/30 08:02:18;;;;;;;15.82;3.30;;;;;;;;;;4995271;28;20132;-65
2023/07/30 08:04:45;;;;;;;19.58;3.28;;;;;;;;;;4937552;28;20063;-66
2023/07/30 08:07:14;;;;;;;13.13;3.20;;;;;;;;;;4966224;28;20055;-66
2023/07/30 08:09:41;;;;;;;13.50;3.22;;;;;;;;;;4976848;28;20063;-66
2023/07/30 08:12:09;;;;;;;13.20;2.70;;;;;;;;;;4960312;28;20047;-66
2023/07/30 08:14:36;;;;;;;14.73;3.22;;;;;;;;;;4954657;28;20057;-66
2023/07/30 08:17:05;;;;;;;22.88;3.15;;;;;;;;;;4983295;28;20057;-66
2023/07/30 08:19:32;;;;;;;19.02;4.00;;;;;;;;;;4986252;28;20058;-66
2023/07/30 08:21:59;;;;;;;20.30;4.00;;;;;;;;;;4997443;28;20050;-68
2023/07/30 08:24:26;;;;;;;18.15;3.70;;;;;;;;;;4951600;28;20228;-68
2023/07/30 08:26:53;;;;;;;15.82;3.45;;;;;;;;;;4983224;28;20050;-69
2023/07/30 08:29:20;;;;;;;17.80;3.90;;;;;;;;;;4977862;28;20055;-67
2023/07/30 08:31:47;;;;;;;22.48;3.97;;;;;;;;;;4977445;28;20133;-68
2023/07/30 08:34:15;;;;;;;14.13;3.75;;;;;;;;;;4943278;28;20098;-69
2023/07/30 08:36:42;;;;;;;15.57;3.38;;;;;;;;;;4976682;28;20081;-68
2023/07/30 08:39:09;;;;;;;19.27;3.42;;;;;;;;;;4961641;28;20332;-67
2023/07/30 08:41:36;;;;;;;11.88;2.83;;;;;;;;;;4976265;28;20046;-67
2023/07/30 08:44:03;;;;;;;12.57;3.20;;;;;;;;;;4952263;28;20050;-69
2023/07/30 08:46:30;;;;;;;16.63;3.22;;;;;;;;;;4958021;28;20065;-68
2023/07/30 08:48:58;;;;;;;14.98;3.08;;;;;;;;;;4982177;28;20077;-68
2023/07/30 08:51:27;;;;;;;8.85;2.40;;;;;;;;;;4978658;28;20047;-67
2023/07/30 08:53:57;;;;;;;21.15;2.90;;;;;;;;;;4991862;28;20143;-68
2023/07/30 08:56:28;;;;;;;15.93;2.72;;;;;;;;;;4966520;28;20050;-68
2023/07/30 08:58:59;;;;;;;11.88;2.90;;;;;;;;;;4977440;28;20146;-68
2023/07/30 09:01:30;;;;;;;17.55;3.53;;;;;;;;;;4981872;28;20043;-69
2023/07/30 09:04:03;;;;;;;14.07;4.25;;;;;;;;;;4959648;28;20087;-68
2023/07/30 09:06:34;;;;;;;15.93;5.63;;;;;;;;;;4977373;28;20046;-67
2023/07/30 09:09:01;;;;;;;9.48;2.65;;;;;;;;;;4974988;28;20061;-68
2023/07/30 09:11:32;;;;;;;12.35;2.65;;;;;;;;;;4980392;28;20089;-67
2023/07/30 09:14:03;;;;;;;20.38;3.50;;;;;;;;;;4973609;28;20129;-67
2023/07/30 09:16:30;;;;;;;14.73;2.50;;;;;;;;;;4926045;28;20057;-68
2023/07/30 09:18:58;;;;;;;11.32;2.15;;;;;;;;;;4980172;28;20057;-67
2023/07/30 09:21:32;;;;;;;10.95;2.22;;;;;;;;;;4982460;28;20058;-68
2023/07/30 09:24:07;;;;;;;15.82;2.83;;;;;;;;;;4990890;28;20056;-67
2023/07/30 09:26:47;;;;;;;8.50;1.88;;;;;;;;;;4975556;28;20054;-68
2023/07/30 09:29:15;;;;;;;10.43;1.65;;;;;;;;;;4981380;28;20165;-67
2023/07/30 09:31:50;;;;;;;11.63;2.25;;;;;;;;;;4982306;28;20058;-67
2023/07/30 09:34:51;;;;;;;12.23;2.35;;;;;;;;;;4937296;28;20055;-68
2023/07/30 09:37:57;;;;;;;10.65;2.10;;;;;;;;;;4947272;28;20063;-67
2023/07/30 09:40:36;;;;;;;8.25;2.30;;;;;;;;;;4950084;28;20173;-68
2023/07/30 09:46:47;;;;;;;10.90;1.55;;;;;;;;;;4889265;28;20122;-68
2023/07/30 09:49:17;;;;;;;7.50;2.05;;;;;;;;;;4981839;28;20062;-67
2023/07/30 09:51:45;;;;;;;10.45;1.67;;;;;;;;;;4964019;28;20055;-67
2023/07/30 09:54:13;;;;;;;11.75;3.50;;;;;;;;;;4951125;28;20060;-67
2023/07/30 09:56:42;;;;;;;;;;;;;;;;;;4955992;28;20050;-66
2023/07/30 09:59:10;;;;;;;11.77;2.58;;;;;;;;;;4977521;28;19933;-67
2023/07/30 10:01:41;;;;;;;5.45;1.58;;;;;;;;;;4962541;28;20141;-68
2023/07/30 10:04:12;;;;;;;4.55;1.23;;;;;;;;;;4952995;28;20114;-67
2023/07/30 10:06:43;;;;;;;9.32;1.58;;;;;;;;;;4973231;28;20051;-67
2023/07/30 10:09:13;;;;;;;10.82;2.22;;;;;;;;;;4976161;28;20058;-67
2023/07/30 10:11:43;;;;;;;9.13;1.52;;;;;;;;;;4961517;28;20195;-67
2023/07/30 10:14:11;;;;;;;16.88;2.10;;;;;;;;;;4967583;28;20118;-67
2023/07/30 10:16:40;;;;;;;9.85;1.73;;;;;;;;;;4957334;28;20082;-66
2023/07/30 10:19:07;;;;;;;10.73;1.80;;;;;;;;;;4961403;28;20062;-67
2023/07/30 10:21:34;;;;;;;8.93;1.65;;;;;;;;;;4976846;28;20067;-67
2023/07/30 10:24:01;;;;;;;11.13;1.92;;;;;;;;;;4964634;28;20061;-67
2023/07/30 10:26:29;;;;;;;14.45;4.70;;;;;;;;;;4949183;28;20078;-67
2023/07/30 10:29:14;;;;;;;10.50;2.10;;;;;;;;;;4962089;28;20093;-67
2023/07/30 10:31:42;;;;;;;7.35;2.15;;;;;;;;;;4976963;28;20054;-67
2023/07/30 10:34:11;;;;;;;5.35;1.40;;;;;;;;;;4984965;28;20065;-66
2023/07/30 10:36:44;;;;;;;10.35;1.60;;;;;;;;;;4998368;28;20065;-67
2023/07/30 10:39:17;;;;;;;11.95;3.20;;;;;;;;;;4986166;28;20059;-67
2023/07/30 10:41:46;;;;;;;16.80;5.50;;;;;;;;;;4980333;28;20066;-66
2023/07/30 10:44:24;;;;;;;10.48;1.83;;;;;;;;;;4960477;28;20058;-66
2023/07/30 10:46:51;;;;;;;7.93;1.48;;;;;;;;;;4958646;28;20062;-67
2023/07/30 10:49:18;;;;;;;6.18;1.40;;;;;;;;;;4966688;28;20061;-67
2023/07/30 10:51:52;;;;;;;8.95;1.40;;;;;;;;;;4959729;28;20071;-66
2023/07/30 10:54:22;;;;;;;9.90;1.70;;;;;;;;;;4945133;28;20237;-67
2023/07/30 10:56:49;;;;;;;12.30;1.92;;;;;;;;;;4964872;28;20081;-67
2023/07/30 10:59:18;;;;;;;6.28;1.42;;;;;;;;;;4961939;28;20084;-67
2023/07/30 11:01:49;;;;;;;4.07;1.13;;;;;;;;;;4962809;28;20054;-68
2023/07/30 11:04:26;;;;;;;10.15;1.25;;;;;;;;;;4971321;28;20050;-67
2023/07/30 11:06:59;;;;;;;6.80;1.17;;;;;;;;;;4940036;28;20050;-67
2023/07/30 11:09:28;;;;;;;9.98;1.25;;;;;;;;;;4984327;28;20077;-67
2023/07/30 11:11:56;;;;;;;4.43;1.05;;;;;;;;;;4985494;28;20057;-67
2023/07/30 11:14:29;;;;;;;7.82;1.45;;;;;;;;;;4967972;28;20146;-67
2023/07/30 11:16:59;;;;;;;7.65;1.77;;;;;;;;;;4914720;28;20054;-67
2023/07/30 11:19:29;;;;;;;10.23;1.30;;;;;;;;;;4989163;28;20091;-68
2023/07/30 11:21:57;;;;;;;6.95;1.38;;;;;;;;;;4998464;28;20057;-66
2023/07/30 11:24:36;;;;;;;7.15;1.08;;;;;;;;;;5000667;28;20050;-66
2023/07/30 11:27:08;;;;;;;7.35;1.17;;;;;;;;;;4986647;28;20160;-66
2023/07/30 11:29:35;;;;;;;9.18;1.67;;;;;;;;;;4998437;28;20177;-66
2023/07/30 11:32:08;;;;;;;6.13;1.40;;;;;;;;;;4998888;28;20054;-67
2023/07/30 11:34:43;;;;;;;7.20;1.42;;;;;;;;;;4941110;28;20050;-67
2023/07/30 11:37:11;;;;;;;19.73;6.20;;;;;;;;;;4971920;28;20128;-67
2023/07/30 11:39:40;;;;;;;5.10;1.42;;;;;;;;;;4978151;28;20058;-66
2023/07/30 11:42:08;;;;;;;11.70;1.42;;;;;;;;;;4975021;28;20055;-66
2023/07/30 11:44:39;;;;;;;5.60;1.17;;;;;;;;;;4955265;28;20058;-66
2023/07/30 11:47:11;;;;;;;6.35;1.08;;;;;;;;;;4972040;28;20054;-67
2023/07/30 11:49:38;;;;;;;3.92;0.85;;;;;;;;;;4975491;28;20149;-67
2023/07/30 11:52:09;;;;;;;6.10;1.02;;;;;;;;;;4966463;28;20047;-67
2023/07/30 11:54:39;;;;;;;7.72;1.13;;;;;;;;;;4955426;28;20055;-67
2023/07/30 11:57:07;;;;;;;3.85;0.98;;;;;;;;;;4953389;28;20062;-67
2023/07/30 11:59:36;;;;;;;5.97;1.10;;;;;;;;;;4975117;28;20086;-68
2023/07/30 12:02:07;;;;;;;8.32;1.63;;;;;;;;;;4962503;28;20137;-67
2023/07/30 12:04:44;;;;;;;7.20;1.00;;;;;;;;;;4951563;28;20082;-66
2023/07/30 12:07:11;;;;;;;7.10;1.00;;;;;;;;;;4962809;28;20063;-66
2023/07/30 12:09:39;;;;;;;5.43;1.17;;;;;;;;;;4966982;28;20065;-67
2023/07/30 12:12:07;;;;;;;5.95;0.98;;;;;;;;;;4963811;28;20051;-68
2023/07/30 12:14:45;;;;;;;6.30;1.77;;;;;;;;;;4960906;28;20059;-67
2023/07/30 12:17:14;;;;;;;3.22;0.88;;;;;;;;;;4962662;28;20063;-72
2023/07/30 12:19:45;;;;;;;5.10;1.70;;;;;;;;;;4981245;28;20065;-67
2023/07/30 12:22:13;;;;;;;7.18;1.13;;;;;;;;;;4965528;28;20069;-68
2023/07/30 12:24:42;;;;;;;2.97;0.80;;;;;;;;;;4957532;28;20068;-67
2023/07/30 12:27:09;;;;;;;6.22;1.80;;;;;;;;;;4960034;28;20145;-66
2023/07/30 12:29:36;;;;;;;9.93;2.72;;;;;;;;;;4963522;28;20062;-71
2023/07/30 12:32:03;;;;;;;6.47;2.60;;;;;;;;;;4984438;28;20066;-70
2023/07/30 12:34:31;;;;;;;9.52;1.92;;;;;;;;;;4955976;28;20069;-71
2023/07/30 12:36:59;;;;;;;;;;;;;;;;;;4941854;28;20054;-69
2023/07/30 12:39:26;;;;;;;6.75;1.05;;;;;;;;;;4984382;28;19925;-70
2023/07/30 12:41:53;;;;;;;7.90;1.52;;;;;;;;;;4987529;28;20105;-68
2023/07/30 12:44:20;;;;;;;8.13;2.28;;;;;;;;;;4949677;28;20054;-69
2023/07/30 12:46:47;;;;;;;9.98;1.95;;;;;;;;;;4962732;28;20058;-68
2023/07/30 12:49:20;;;;;;;13.32;2.03;;;;;;;;;;4970670;28;20046;-67
2023/07/30 12:51:50;;;;;;;11.05;2.28;;;;;;;;;;4984445;28;20058;-71
2023/07/30 12:54:18;;;;;;;17.38;1.48;;;;;;;;;;4969107;28;20114;-72
2023/07/30 12:56:45;;;;;;;5.53;1.00;;;;;;;;;;4948373;28;20082;-66
2023/07/30 12:59:12;;;;;;;6.00;1.52;;;;;;;;;;4984526;28;20069;-72
2023/07/30 13:01:39;;;;;;;11.73;1.23;;;;;;;;;;4996000;28;20054;-76
2023/07/30 13:04:06;;;;;;;6.93;1.05;;;;;;;;;;4970986;28;20057;-68
2023/07/30 13:06:33;;;;;;;8.50;1.00;;;;;;;;;;4952951;28;20043;-66
2023/07/30 13:09:02;;;;;;;11.57;1.10;;;;;;;;;;4984911;28;20085;-67
2023/07/30 13:11:28;;;;;;;5.72;0.90;;;;;;;;;;4983999;28;20060;-70
2023/07/30 13:13:55;;;;;;;8.68;2.47;;;;;;;;;;4992155;28;20057;-69
2023/07/30 13:16:22;;;;;;;23.35;11.88;;;;;;;;;;4979631;28;20065;-70
2023/07/30 13:18:49;;;;;;;13.90;7.80;;;;;;;;;;4983720;28;20084;-66
2023/07/30 13:21:16;;;;;;;8.80;3.35;;;;;;;;;;4981849;28;20108;-66
2023/07/30 13:23:44;;;;;;;6.50;2.83;;;;;;;;;;4995717;28;20065;-70
2023/07/30 13:26:19;;;;;;;8.40;1.92;;;;;;;;;;4962745;28;20070;-70
2023/07/30 13:28:49;;;;;;;5.53;1.02;;;;;;;;;;4964883;28;20055;-67
2023/07/30 13:31:16;;;;;;;3.58;0.95;;;;;;;;;;4962775;28;20059;-68
2023/07/30 13:33:45;;;;;;;4.55;0.88;;;;;;;;;;4966730;28;20065;-70
2023/07/30 13:36:13;;;;;;;5.20;1.15;;;;;;;;;;4961274;28;20057;-68
2023/07/30 13:38:40;;;;;;;4.68;1.67;;;;;;;;;;4975639;28;20955;-70
2023/07/30 13:41:08;;;;;;;5.70;2.15;;;;;;;;;;5001174;28;20082;-66
2023/07/30 13:43:39;;;;;;;11.77;2.00;;;;;;;;;;5000325;28;20041;-68
2023/07/30 13:46:05;;;;;;;7.40;2.10;;;;;;;;;;4969074;28;20045;-71
2023/07/30 13:48:32;;;;;;;4.85;1.63;;;;;;;;;;4975113;28;20289;-69
2023/07/30 13:50:59;;;;;;;9.35;1.40;;;;;;;;;;4984618;28;20132;-69
2023/07/30 13:53:27;;;;;;;5.68;1.38;;;;;;;;;;4980813;28;20155;-67
2023/07/30 13:55:54;;;;;;;4.63;1.63;;;;;;;;;;4956247;28;20050;-72
2023/07/30 13:58:21;;;;;;;3.15;0.90;;;;;;;;;;4998096;28;20065;-71
2023/07/30 14:00:55;;;;;;;4.60;1.42;;;;;;;;;;4983711;28;20053;-70
2023/07/30 14:03:22;;;;;;;4.60;1.35;;;;;;;;;;5002868;28;20104;-66
2023/07/30 14:05:49;;;;;;;7.00;1.00;;;;;;;;;;4957721;28;20073;-69
2023/07/30 14:08:25;;;;;;;8.13;1.20;;;;;;;;;;4978348;28;20296;-71
2023/07/30 14:10:52;;;;;;;4.13;1.50;;;;;;;;;;4996116;28;20124;-69
2023/07/30 14:13:21;;;;;;;4.65;1.67;;;;;;;;;;4997916;28;20121;-71
2023/07/30 14:15:52;;;;;;;7.25;2.30;;;;;;;;;;4995768;28;20100;-71
2023/07/30 14:18:19;;;;;;;7.20;1.98;;;;;;;;;;4995490;28;20076;-69
2023/07/30 14:20:46;;;;;;;6.05;1.25;;;;;;;;;;4981615;28;20054;-71
2023/07/30 14:23:18;;;;;;;12.98;4.03;;;;;;;;;;5001340;28;20046;-68
2023/07/30 14:25:45;;;;;;;16.33;6.82;;;;;;;;;;4963295;28;20076;-71
2023/07/30 14:28:16;;;;;;;8.18;2.97;;;;;;;;;;4986086;28;20064;-68
2023/07/30 14:30:44;;;;;;;7.65;1.52;;;;;;;;;;4980384;28;20061;-68
2023/07/30 14:33:12;;;;;;;4.70;1.80;;;;;;;;;;4983574;28;20060;-71
2023/07/30 14:35:38;;;;;;;;;;;;;;;;;;4974128;28;20053;-69
2023/07/30 14:38:06;;;;;;;8.05;1.58;;;;;;;;;;4979158;28;19933;-74
2023/07/30 14:40:34;;;;;;;4.82;1.48;;;;;;;;;;4971141;28;20053;-72
2023/07/30 14:43:00;;;;;;;7.78;1.10;;;;;;;;;;4964986;28;20089;-67
2023/07/30 14:45:27;;;;;;;9.35;1.00;;;;;;;;;;4926139;28;20061;-68
2023/07/30 14:47:54;;;;;;;9.98;1.48;;;;;;;;;;4964422;28;20058;-71
2023/07/30 14:50:26;;;;;;;9.50;1.85;;;;;;;;;;4959162;28;20051;-72
2023/07/30 14:52:55;;;;;;;7.10;1.20;;;;;;;;;;4981090;28;20054;-77